createdAt,value
2018-09-23T00:00:02.927Z,0
2018-09-23T00:05:03.334Z,0
2018-09-23T00:10:02.978Z,0
2018-09-23T00:15:03.203Z,0
2018-09-23T00:20:03.123Z,0
2018-09-23T00:25:02.660Z,0
2018-09-23T00:30:03.543Z,0
2018-09-23T00:35:03.144Z,0
2018-09-23T00:40:03.122Z,0
2018-09-23T00:45:02.744Z,0
2018-09-23T00:50:02.478Z,0
2018-09-23T00:55:03.171Z,0
2018-09-23T01:00:02.702Z,0
2018-09-23T01:05:03.736Z,0
2018-09-23T01:10:02.428Z,0
2018-09-23T01:15:03.150Z,0
2018-09-23T01:20:02.805Z,0
2018-09-23T01:25:02.540Z,0
2018-09-23T01:30:03.353Z,0
2018-09-23T01:35:02.959Z,0
2018-09-23T01:40:02.825Z,0
2018-09-23T01:45:02.363Z,0
2018-09-23T01:50:03.290Z,0
2018-09-23T01:55:02.902Z,0
2018-09-23T02:00:02.590Z,0
2018-09-23T02:05:03.252Z,0
2018-09-23T02:10:02.910Z,0
2018-09-23T02:15:02.704Z,0
2018-09-23T02:20:03.359Z,0
2018-09-23T02:25:03.025Z,0
2018-09-23T02:30:02.641Z,0
2018-09-23T02:35:03.371Z,0
2018-09-23T02:40:03.060Z,0
2018-09-23T02:45:02.806Z,0
2018-09-23T02:50:03.441Z,0
2018-09-23T02:55:03.071Z,0
2018-09-23T03:00:02.825Z,0
2018-09-23T03:05:02.498Z,0
2018-09-23T03:10:03.544Z,0
2018-09-23T03:15:03.141Z,0
2018-09-23T03:20:02.873Z,0
2018-09-23T03:25:02.518Z,0
2018-09-23T03:30:03.191Z,0
2018-09-23T03:35:02.867Z,0
2018-09-23T03:40:02.588Z,0
2018-09-23T03:45:03.550Z,0
2018-09-23T03:50:03.290Z,0
2018-09-23T03:55:03.145Z,0
2018-09-23T04:00:02.766Z,0
2018-09-23T04:05:02.707Z,0
2018-09-23T04:10:03.626Z,0
2018-09-23T04:15:03.162Z,0
2018-09-23T04:20:02.956Z,0
2018-09-23T04:25:02.501Z,0
2018-09-23T04:30:03.274Z,0
2018-09-23T04:35:02.805Z,0
2018-09-23T04:40:02.571Z,0
2018-09-23T04:45:03.557Z,0
2018-09-23T04:50:03.346Z,0
2018-09-23T04:55:03.148Z,2
2018-09-23T05:00:02.653Z,3
2018-09-23T05:05:03.457Z,8
2018-09-23T05:10:03.088Z,16
2018-09-23T05:15:03.262Z,35
2018-09-23T05:20:02.883Z,42
2018-09-23T05:25:02.650Z,49
2018-09-23T05:30:03.462Z,60
2018-09-23T05:35:03.173Z,81
2018-09-23T05:40:02.945Z,120
2018-09-23T05:45:02.489Z,250
2018-09-23T05:50:03.363Z,353
2018-09-23T05:55:03.056Z,228
2018-09-23T06:00:02.742Z,453
2018-09-23T06:05:02.415Z,540
2018-09-23T06:10:03.167Z,429
2018-09-23T06:15:02.830Z,633
2018-09-23T06:20:02.583Z,762
2018-09-23T06:25:03.400Z,762
2018-09-23T06:30:03.223Z,656
2018-09-23T06:35:02.948Z,564
2018-09-23T06:40:02.639Z,694
2018-09-23T06:45:03.385Z,843
2018-09-23T06:50:03.011Z,966
2018-09-23T06:55:02.683Z,965
2018-09-23T07:00:03.573Z,831
2018-09-23T07:05:03.266Z,915
2018-09-23T07:10:02.943Z,1000
2018-09-23T07:15:02.551Z,1000
2018-09-23T07:20:03.394Z,1000
2018-09-23T07:25:03.017Z,2000
2018-09-23T07:30:02.795Z,3000
2018-09-23T07:35:02.845Z,3000
2018-09-23T07:40:02.731Z,3000
2018-09-23T07:45:03.106Z,3000
2018-09-23T07:50:02.785Z,4000
2018-09-23T07:55:02.495Z,4000
2018-09-23T08:00:03.162Z,3000
2018-09-23T08:05:02.795Z,2000
2018-09-23T08:10:02.616Z,3000
2018-09-23T08:15:03.912Z,3000
2018-09-23T08:20:02.649Z,2000
2018-09-23T08:25:03.094Z,1000
2018-09-23T08:30:03.100Z,2000
2018-09-23T08:35:02.716Z,2000
2018-09-23T08:40:03.509Z,2000
2018-09-23T08:45:02.683Z,3000
2018-09-23T08:50:03.276Z,4000
2018-09-23T08:55:03.045Z,2000
2018-09-23T09:00:02.747Z,2000
2018-09-23T09:05:02.461Z,3000
2018-09-23T09:10:03.258Z,3000
2018-09-23T09:15:02.857Z,3000
2018-09-23T09:20:02.616Z,3000
2018-09-23T09:25:03.264Z,3000
2018-09-23T09:30:02.900Z,4000
2018-09-23T09:35:02.527Z,2000
2018-09-23T09:40:03.301Z,2000
2018-09-23T09:45:02.947Z,1000
2018-09-23T09:50:02.521Z,1000
2018-09-23T09:55:02.996Z,2000
2018-09-23T10:00:02.655Z,2000
2018-09-23T10:05:03.293Z,1000
2018-09-23T10:10:02.993Z,1000
2018-09-23T10:15:02.573Z,1000
2018-09-23T10:20:03.217Z,1000
2018-09-23T10:25:02.831Z,2000
2018-09-23T10:30:02.812Z,2000
2018-09-23T10:35:02.498Z,3000
2018-09-23T10:40:03.255Z,2000
2018-09-23T10:45:02.862Z,2000
2018-09-23T10:50:02.516Z,1000
2018-09-23T10:55:03.059Z,1000
2018-09-23T11:00:02.740Z,2000
2018-09-23T11:05:02.425Z,2000
2018-09-23T11:10:03.145Z,4000
2018-09-23T11:15:02.713Z,4000
2018-09-23T11:20:03.358Z,3000
2018-09-23T11:25:02.943Z,2000
2018-09-23T11:30:02.573Z,1000
2018-09-23T11:35:03.178Z,1000
2018-09-23T11:40:02.974Z,2000
2018-09-23T11:45:03.062Z,2000
2018-09-23T11:50:02.682Z,516
2018-09-23T11:55:03.322Z,911
2018-09-23T12:00:02.869Z,1000
2018-09-23T12:05:02.464Z,1000
2018-09-23T12:10:03.561Z,973
2018-09-23T12:15:03.185Z,824
2018-09-23T12:20:02.862Z,727
2018-09-23T12:25:02.506Z,877
2018-09-23T12:30:03.277Z,1000
2018-09-23T12:35:02.863Z,1000
2018-09-23T12:40:02.733Z,1000
2018-09-23T12:45:02.598Z,2000
2018-09-23T12:50:03.292Z,5000
2018-09-23T12:55:02.917Z,3000
2018-09-23T13:00:02.578Z,2000
2018-09-23T13:05:03.219Z,2000
2018-09-23T13:10:02.901Z,1000
2018-09-23T13:15:02.464Z,1000
2018-09-23T13:20:02.965Z,1000
2018-09-23T13:25:02.511Z,2000
2018-09-23T13:30:03.153Z,1000
2018-09-23T13:35:02.745Z,2000
2018-09-23T13:40:02.463Z,2000
2018-09-23T13:45:03.150Z,1000
2018-09-23T13:50:02.863Z,2000
2018-09-23T13:55:02.493Z,3000
2018-09-23T14:00:03.103Z,1000
2018-09-23T14:05:02.922Z,2000
2018-09-23T14:10:03.095Z,981
2018-09-23T14:15:02.733Z,1000
2018-09-23T14:20:02.417Z,1000
2018-09-23T14:25:03.107Z,2000
2018-09-23T14:30:02.698Z,3000
2018-09-23T14:35:02.417Z,3000
2018-09-23T14:40:03.062Z,5000
2018-09-23T14:45:02.705Z,3000
2018-09-23T14:50:02.435Z,2000
2018-09-23T14:55:03.191Z,1000
2018-09-23T15:00:03.679Z,2000
2018-09-23T15:05:02.580Z,2000
2018-09-23T15:10:03.405Z,2000
2018-09-23T15:15:03.053Z,2000
2018-09-23T15:20:02.769Z,1000
2018-09-23T15:25:02.443Z,1000
2018-09-23T15:30:03.182Z,2000
2018-09-23T15:35:02.866Z,2000
2018-09-23T15:40:02.575Z,2000
2018-09-23T15:45:03.283Z,3000
2018-09-23T15:50:02.887Z,3000
2018-09-23T15:55:02.600Z,3000
2018-09-23T16:00:03.258Z,2000
2018-09-23T16:05:02.917Z,1000
2018-09-23T16:10:02.703Z,1000
2018-09-23T16:15:03.467Z,591
2018-09-23T16:20:03.128Z,481
2018-09-23T16:25:02.829Z,429
2018-09-23T16:30:02.478Z,386
2018-09-23T16:35:03.245Z,430
2018-09-23T16:40:02.843Z,468
2018-09-23T16:45:02.442Z,432
2018-09-23T16:50:03.102Z,434
2018-09-23T16:55:02.839Z,408
2018-09-23T17:00:02.461Z,360
2018-09-23T17:05:03.090Z,381
2018-09-23T17:10:02.827Z,304
2018-09-23T17:15:02.472Z,113
2018-09-23T17:20:03.143Z,60
2018-09-23T17:25:02.747Z,54
2018-09-23T17:30:02.536Z,44
2018-09-23T17:35:02.639Z,34
2018-09-23T17:40:02.887Z,26
2018-09-23T17:45:02.696Z,16
2018-09-23T17:50:02.422Z,11
2018-09-23T17:55:03.148Z,5
2018-09-23T18:00:02.766Z,2
2018-09-23T18:05:02.511Z,1
2018-09-23T18:10:03.147Z,0
2018-09-23T18:15:02.867Z,0
2018-09-23T18:20:02.758Z,0
2018-09-23T18:25:02.430Z,0
2018-09-23T18:30:03.064Z,0
2018-09-23T18:35:02.671Z,0
2018-09-23T18:40:03.327Z,0
2018-09-23T18:45:02.899Z,0
2018-09-23T18:50:02.840Z,0
2018-09-23T18:55:02.465Z,0
2018-09-23T19:00:03.138Z,0
2018-09-23T19:05:02.775Z,0
2018-09-23T19:10:02.432Z,0
2018-09-23T19:15:03.162Z,0
2018-09-23T19:20:02.847Z,0
2018-09-23T19:25:02.619Z,0
2018-09-23T19:30:03.250Z,0
2018-09-23T19:35:02.865Z,0
2018-09-23T19:40:02.540Z,0
2018-09-23T19:45:03.236Z,0
2018-09-23T19:50:02.738Z,0
2018-09-23T19:55:03.605Z,0
2018-09-23T20:00:03.339Z,0
2018-09-23T20:05:03.158Z,0
2018-09-23T20:10:02.869Z,0
2018-09-23T20:15:02.533Z,0
2018-09-23T20:20:03.313Z,0
2018-09-23T20:25:02.956Z,0
2018-09-23T20:30:02.707Z,0
2018-09-23T20:35:03.487Z,0
2018-09-23T20:40:03.231Z,0
2018-09-23T20:45:02.949Z,0
2018-09-23T20:50:02.674Z,0
2018-09-23T20:55:03.383Z,0
2018-09-23T21:00:03.034Z,0
2018-09-23T21:05:02.624Z,0
2018-09-23T21:10:03.379Z,0
2018-09-23T21:15:03.258Z,0
2018-09-23T21:20:03.236Z,0
2018-09-23T21:25:02.994Z,0
2018-09-23T21:30:03.039Z,0
2018-09-23T21:35:02.801Z,0
2018-09-23T21:40:02.528Z,0
2018-09-23T21:45:03.297Z,0
2018-09-23T21:50:02.841Z,0
2018-09-23T21:55:02.535Z,0
2018-09-23T22:00:03.161Z,0
2018-09-23T22:05:03.235Z,0
2018-09-23T22:10:03.049Z,0
2018-09-23T22:15:02.691Z,0
2018-09-23T22:20:02.471Z,0
2018-09-23T22:25:03.145Z,0
2018-09-23T22:30:02.868Z,0
2018-09-23T22:35:02.959Z,0
2018-09-23T22:40:02.808Z,0
2018-09-23T22:45:03.394Z,0
2018-09-23T22:50:03.142Z,0
2018-09-23T22:55:02.786Z,0
2018-09-23T23:00:03.548Z,0
2018-09-23T23:05:02.827Z,0
2018-09-23T23:10:02.695Z,0
2018-09-23T23:15:03.311Z,0
2018-09-23T23:20:03.029Z,0
2018-09-23T23:25:02.679Z,0
2018-09-23T23:30:03.303Z,0
2018-09-23T23:35:03.007Z,0
2018-09-23T23:40:02.947Z,0
2018-09-23T23:45:02.574Z,0
2018-09-23T23:50:03.342Z,0
2018-09-23T23:55:03.083Z,0
